Time;durP1;ratioP1;P1;durP2;ratioP2;P2;SDS_P1;SDS_P2;PMS_P1;PMS_P2;Temp;Humidity;BMP_temperature;BMP_pressure;BME280_temperature;BME280_humidity;BME280_pressure;Samples;Min_cycle;Max_cycle;Signal;HPM_P1;HPM_P2
2023/07/02 00:02:13;;;;;;;;;;;;;;;;;;5050428;28;5092;-49
2023/07/02 00:04:38;;;;;;;;;;;;;;;;;;5043808;28;1193;-52
2023/07/02 00:07:05;;;;;;;;;;;;;;;;;;5050400;28;5058;-56
2023/07/02 00:09:30;;;;;;;;;;;;;;;;;;5050853;28;5057;-51
2023/07/02 00:11:55;;;;;;;;;;;;;;;;;;5051174;28;5166;-53
2023/07/02 00:14:21;;;;;;;;;;;;;;;;;;5050478;28;5151;-49
2023/07/02 00:16:46;;;;;;;;;;;;;;;;;;5041384;28;1113;-52
2023/07/02 00:19:13;;;;;;;;;;;;;;;;;;5041723;28;5072;-50
2023/07/02 00:21:40;;;;;;;;;;;;;;;;;;5050358;28;4480;-48
2023/07/02 00:24:05;;;;;;;;;;;;;;;;;;5050268;28;5051;-53
2023/07/02 00:26:30;;;;;;;;;;;;;;;;;;5050199;28;4491;-47
2023/07/02 00:28:55;;;;;;;;;;;;;;;;;;5049318;28;1647;-52
2023/07/02 00:31:21;;;;;;;;;;;;;;;;;;5050206;28;5074;-53
2023/07/02 00:33:46;;;;;;;;;;;;;;;;;;5041645;28;4607;-51
2023/07/02 00:36:14;;;;;;;;;;;;;;;;;;5049987;28;5220;-50
2023/07/02 00:38:42;;;;;;;;;;;;;;;;;;5049834;28;4480;-52
2023/07/02 00:41:08;;;;;;;;;;;;;;;;;;5050374;28;5130;-54
2023/07/02 00:43:33;;;;;;;;;;;;;;;;;;5050904;28;1101;-53
2023/07/02 00:45:59;;;;;;;;;;;;;;;;;;5039621;28;4675;-51
2023/07/02 00:48:24;;;;;;;;;;;;;;;;;;5065187;28;4980;-49
2023/07/02 00:50:49;;;;;;;;;;;;;;;;;;5031587;28;5095;-54
2023/07/02 00:53:14;;;;;;;;;;;;;;;;;;5064995;28;5095;-50
2023/07/02 00:55:40;;;;;;;;;;;;;;;;;;5050578;28;1917;-52
2023/07/02 00:58:05;;;;;;;;;;;;;;;;;;5047368;28;4551;-54
2023/07/02 01:00:30;;;;;;;;;;;;;;;;;;5041723;28;5054;-50
2023/07/02 01:02:59;;;;;;;;;;;;;;;;;;5049215;28;5023;-53
2023/07/02 01:05:35;;;;;;;;;;;;;;;;;;5049444;28;5084;-54
2023/07/02 01:08:11;;;;;;;;;;;;;;;;;;5049910;28;1098;-52
2023/07/02 01:10:37;;;;;;;;;;;;;;;;;;5049856;28;5955;-50
2023/07/02 01:13:07;;;;;;;;;;;;;;;;;;5060235;28;4582;-48
2023/07/02 01:15:32;;;;;;;;;;;;;;;;;;5027287;28;5002;-53
2023/07/02 01:17:57;;;;;;;;;;;;;;;;;;5064325;28;5141;-50
2023/07/02 01:20:23;;;;;;;;;;;;;;;;;;5064840;28;4459;-51
2023/07/02 01:22:51;;;;;;;;;;;;;;;;;;5065019;28;1136;-48
2023/07/02 01:25:16;;;;;;;;;;;;;;;;;;5049111;28;5039;-54
2023/07/02 01:27:41;;;;;;;;;;;;;;;;;;5047168;28;5150;-52
2023/07/02 01:30:07;;;;;;;;;;;;;;;;;;5041174;28;5099;-51
2023/07/02 01:32:32;;;;;;;;;;;;;;;;;;5063928;28;4882;-53
2023/07/02 01:34:58;;;;;;;;;;;;;;;;;;5049333;28;5062;-51
2023/07/02 01:37:24;;;;;;;;;;;;;;;;;;5063893;28;5237;-51
2023/07/02 01:39:49;;;;;;;;;;;;;;;;;;5049767;28;4925;-54
2023/07/02 01:42:18;;;;;;;;;;;;;;;;;;5037180;28;5130;-54
2023/07/02 01:44:44;;;;;;;;;;;;;;;;;;5045170;28;4832;-49
2023/07/02 01:47:09;;;;;;;;;;;;;;;;;;5048658;28;4439;-54
2023/07/02 01:49:36;;;;;;;;;;;;;;;;;;5049461;28;2150;-51
2023/07/02 01:52:01;;;;;;;;;;;;;;;;;;5048949;28;4969;-51
2023/07/02 01:54:29;;;;;;;;;;;;;;;;;;5044830;28;5076;-59
2023/07/02 01:56:55;;;;;;;;;;;;;;;;;;5046974;28;5064;-54
2023/07/02 01:59:20;;;;;;;;;;;;;;;;;;5048502;28;4468;-53
2023/07/02 02:01:45;;;;;;;;;;;;;;;;;;5048117;28;1524;-53
2023/07/02 02:04:11;;;;;;;;;;;;;;;;;;5048712;28;4551;-51
2023/07/02 02:06:36;;;;;;;;;;;;;;;;;;5048347;28;4535;-51
2023/07/02 02:09:03;;;;;;;;;;;;;;;;;;5041342;28;4445;-49
2023/07/02 02:11:28;;;;;;;;;;;;;;;;;;5049058;28;5024;-52
2023/07/02 02:13:53;;;;;;;;;;;;;;;;;;5049075;28;1913;-51
2023/07/02 02:16:19;;;;;;;;;;;;;;;;;;5047964;28;5079;-60
2023/07/02 02:18:45;;;;;;;;;;;;;;;;;;5048159;28;4919;-64
2023/07/02 02:21:10;;;;;;;;;;;;;;;;;;5048431;28;4529;-61
2023/07/02 02:23:35;;;;;;;;;;;;;;;;;;5038072;28;5025;-61
2023/07/02 02:26:00;;;;;;;;;;;;;;;;;;5040209;28;1120;-60
2023/07/02 02:28:25;;;;;;;;;;;;;;;;;;5046226;28;5682;-61
2023/07/02 02:30:51;;;;;;;;;;;;;;;;;;5048176;28;4655;-61
2023/07/02 02:33:16;;;;;;;;;;;;;;;;;;5047787;28;5057;-62
2023/07/02 02:35:41;;;;;;;;;;;;;;;;;;5048121;28;4954;-60
2023/07/02 02:38:06;;;;;;;;;;;;;;;;;;5042621;28;5036;-61
2023/07/02 02:40:32;;;;;;;;;;;;;;;;;;5044976;28;1237;-60
2023/07/02 02:42:57;;;;;;;;;;;;;;;;;;5048032;28;5125;-61
2023/07/02 02:45:22;;;;;;;;;;;;;;;;;;5047371;28;5039;-60
2023/07/02 02:47:48;;;;;;;;;;;;;;;;;;5047903;28;4989;-60
2023/07/02 02:50:13;;;;;;;;;;;;;;;;;;5063382;28;5085;-60
2023/07/02 02:52:38;;;;;;;;;;;;;;;;;;5036417;28;1158;-60
2023/07/02 02:55:04;;;;;;;;;;;;;;;;;;5062803;28;4526;-61
2023/07/02 02:57:30;;;;;;;;;;;;;;;;;;5047980;28;4935;-60
2023/07/02 02:59:55;;;;;;;;;;;;;;;;;;5047494;28;5051;-62
2023/07/02 03:02:20;;;;;;;;;;;;;;;;;;5047344;28;4491;-60
2023/07/02 03:04:46;;;;;;;;;;;;;;;;;;5044669;28;1287;-62
2023/07/02 03:07:11;;;;;;;;;;;;;;;;;;5048028;28;4873;-60
2023/07/02 03:09:36;;;;;;;;;;;;;;;;;;5047646;28;4995;-60
2023/07/02 03:12:01;;;;;;;;;;;;;;;;;;5048251;28;5367;-60
2023/07/02 03:14:27;;;;;;;;;;;;;;;;;;5051640;28;5076;-60
2023/07/02 03:16:52;;;;;;;;;;;;;;;;;;5052611;28;1300;-62
2023/07/02 03:19:17;;;;;;;;;;;;;;;;;;5045690;28;4954;-61
2023/07/02 03:21:43;;;;;;;;;;;;;;;;;;5047580;28;4888;-60
2023/07/02 03:24:11;;;;;;;;;;;;;;;;;;5051845;28;5058;-60
2023/07/02 03:26:37;;;;;;;;;;;;;;;;;;5051872;28;4656;-63
2023/07/02 03:29:02;;;;;;;;;;;;;;;;;;5032101;28;5021;-59
2023/07/02 03:31:27;;;;;;;;;;;;;;;;;;5066912;28;1437;-61
2023/07/02 03:33:52;;;;;;;;;;;;;;;;;;5046448;28;5053;-60
2023/07/02 03:36:17;;;;;;;;;;;;;;;;;;5046821;28;5237;-61
2023/07/02 03:38:43;;;;;;;;;;;;;;;;;;5051358;28;5065;-61
2023/07/02 03:41:08;;;;;;;;;;;;;;;;;;5050754;28;4965;-59
2023/07/02 03:43:34;;;;;;;;;;;;;;;;;;5051646;28;2658;-59
2023/07/02 03:45:59;;;;;;;;;;;;;;;;;;5050764;28;5114;-60
2023/07/02 03:48:24;;;;;;;;;;;;;;;;;;5040329;28;5180;-60
2023/07/02 03:50:49;;;;;;;;;;;;;;;;;;5043186;28;5718;-60
2023/07/02 03:53:15;;;;;;;;;;;;;;;;;;5050967;28;4995;-60
2023/07/02 03:55:40;;;;;;;;;;;;;;;;;;5051709;28;1902;-60
2023/07/02 03:58:06;;;;;;;;;;;;;;;;;;5050662;28;5025;-62
2023/07/02 04:00:31;;;;;;;;;;;;;;;;;;5050637;28;4669;-60
2023/07/02 04:02:56;;;;;;;;;;;;;;;;;;5039157;28;4716;-62
2023/07/02 04:05:21;;;;;;;;;;;;;;;;;;5045233;28;5281;-61
2023/07/02 04:07:47;;;;;;;;;;;;;;;;;;5050925;28;1113;-60
2023/07/02 04:10:12;;;;;;;;;;;;;;;;;;5050776;28;4663;-60
2023/07/02 04:12:37;;;;;;;;;;;;;;;;;;5050417;28;4971;-62
2023/07/02 04:15:03;;;;;;;;;;;;;;;;;;5047456;28;5127;-61
2023/07/02 04:17:28;;;;;;;;;;;;;;;;;;5065756;28;4707;-59
2023/07/02 04:19:54;;;;;;;;;;;;;;;;;;5066528;28;1172;-60
2023/07/02 04:22:19;;;;;;;;;;;;;;;;;;5050016;28;4497;-61
2023/07/02 04:24:44;;;;;;;;;;;;;;;;;;5049862;28;4847;-59
2023/07/02 04:27:10;;;;;;;;;;;;;;;;;;5063728;28;4950;-60
2023/07/02 04:29:36;;;;;;;;;;;;;;;;;;5044841;28;4479;-60
2023/07/02 04:32:01;;;;;;;;;;;;;;;;;;5043849;28;5073;-60
2023/07/02 04:34:26;;;;;;;;;;;;;;;;;;5050525;28;5070;-60
2023/07/02 04:36:51;;;;;;;;;;;;;;;;;;5050027;28;4433;-61
2023/07/02 04:39:17;;;;;;;;;;;;;;;;;;5049634;28;4561;-60
2023/07/02 04:41:42;;;;;;;;;;;;;;;;;;5050308;28;4579;-60
2023/07/02 04:44:07;;;;;;;;;;;;;;;;;;5046107;28;4619;-60
2023/07/02 04:46:33;;;;;;;;;;;;;;;;;;5050328;28;1395;-61
2023/07/02 04:48:58;;;;;;;;;;;;;;;;;;5049640;28;4436;-60
2023/07/02 04:51:24;;;;;;;;;;;;;;;;;;5064929;28;5645;-60
2023/07/02 04:53:49;;;;;;;;;;;;;;;;;;5049667;28;4943;-60
2023/07/02 04:56:14;;;;;;;;;;;;;;;;;;5049675;28;5269;-60
2023/07/02 04:58:39;;;;;;;;;;;;;;;;;;5043981;28;1175;-60
2023/07/02 05:01:04;;;;;;;;;;;;;;;;;;5045403;28;4963;-62
2023/07/02 05:03:30;;;;;;;;;;;;;;;;;;5047164;28;4511;-61
2023/07/02 05:05:55;;;;;;;;;;;;;;;;;;5049102;28;4509;-60
2023/07/02 05:08:20;;;;;;;;;;;;;;;;;;5049929;28;5078;-60
2023/07/02 05:10:45;;;;;;;;;;;;;;;;;;5050099;28;1149;-61
2023/07/02 05:13:11;;;;;;;;;;;;;;;;;;5048431;28;4960;-60
2023/07/02 05:15:36;;;;;;;;;;;;;;;;;;5049299;28;5240;-61
2023/07/02 05:18:01;;;;;;;;;;;;;;;;;;5064781;28;4496;-60
2023/07/02 05:20:26;;;;;;;;;;;;;;;;;;5050012;28;5256;-60
2023/07/02 05:22:52;;;;;;;;;;;;;;;;;;5049945;28;1136;-60
2023/07/02 05:25:17;;;;;;;;;;;;;;;;;;5047299;28;4987;-60
2023/07/02 05:27:42;;;;;;;;;;;;;;;;;;5041244;28;4619;-59
2023/07/02 05:30:07;;;;;;;;;;;;;;;;;;5049159;28;4972;-60
2023/07/02 05:32:33;;;;;;;;;;;;;;;;;;5048764;28;4876;-60
2023/07/02 05:34:58;;;;;;;;;;;;;;;;;;5049261;28;4900;-60
2023/07/02 05:37:24;;;;;;;;;;;;;;;;;;5030390;28;4679;-61
2023/07/02 05:39:49;;;;;;;;;;;;;;;;;;5043998;28;5018;-61
2023/07/02 05:42:14;;;;;;;;;;;;;;;;;;5043063;28;5120;-60
2023/07/02 05:44:39;;;;;;;;;;;;;;;;;;5048907;28;4831;-60
2023/07/02 05:47:05;;;;;;;;;;;;;;;;;;5049107;28;4993;-60
2023/07/02 05:49:30;;;;;;;;;;;;;;;;;;5049363;28;1007;-61
2023/07/02 05:51:55;;;;;;;;;;;;;;;;;;5048724;28;4418;-60
2023/07/02 05:54:21;;;;;;;;;;;;;;;;;;5040592;28;4980;-60
2023/07/02 05:56:46;;;;;;;;;;;;;;;;;;5048785;28;4646;-61
2023/07/02 05:59:14;;;;;;;;;;;;;;;;;;5048483;28;4460;-61
2023/07/02 06:01:39;;;;;;;;;;;;;;;;;;5046384;28;1509;-61
2023/07/02 06:04:05;;;;;;;;;;;;;;;;;;5048410;28;4680;-60
2023/07/02 06:06:30;;;;;;;;;;;;;;;;;;5048544;28;4599;-60
2023/07/02 06:08:55;;;;;;;;;;;;;;;;;;5041551;28;4892;-59
2023/07/02 06:11:21;;;;;;;;;;;;;;;;;;5042433;28;4461;-60
2023/07/02 06:13:46;;;;;;;;;;;;;;;;;;5048827;28;1938;-61
2023/07/02 06:16:11;;;;;;;;;;;;;;;;;;5048019;28;5067;-60
2023/07/02 06:18:36;;;;;;;;;;;;;;;;;;5048164;28;4464;-60
2023/07/02 06:21:02;;;;;;;;;;;;;;;;;;5048730;28;4465;-61
2023/07/02 06:23:27;;;;;;;;;;;;;;;;;;5043017;28;4982;-60
2023/07/02 06:25:58;;;;;;;;;;;;;;;;;;5048920;28;1078;-60
2023/07/02 06:28:23;;;;;;;;;;;;;;;;;;5046508;28;5020;-60
2023/07/02 06:30:49;;;;;;;;;;;;;;;;;;5048109;28;5053;-60
2023/07/02 06:33:14;;;;;;;;;;;;;;;;;;5047645;28;5614;-60
2023/07/02 06:35:39;;;;;;;;;;;;;;;;;;5044486;28;4947;-61
2023/07/02 06:38:04;;;;;;;;;;;;;;;;;;5039766;28;5021;-61
2023/07/02 06:40:30;;;;;;;;;;;;;;;;;;5048590;28;1121;-61
2023/07/02 06:42:55;;;;;;;;;;;;;;;;;;5048078;28;5061;-61
2023/07/02 06:45:20;;;;;;;;;;;;;;;;;;5047582;28;5073;-60
2023/07/02 06:47:45;;;;;;;;;;;;;;;;;;5048095;28;4944;-62
2023/07/02 06:50:11;;;;;;;;;;;;;;;;;;5047619;28;4476;-60
2023/07/02 06:52:36;;;;;;;;;;;;;;;;;;5048383;28;1257;-61
2023/07/02 06:55:01;;;;;;;;;;;;;;;;;;5047956;28;4662;-60
2023/07/02 06:57:27;;;;;;;;;;;;;;;;;;5047787;28;5027;-61
2023/07/02 06:59:52;;;;;;;;;;;;;;;;;;5047364;28;4491;-60
2023/07/02 07:02:17;;;;;;;;;;;;;;;;;;5047692;28;4799;-60
2023/07/02 07:04:42;;;;;;;;;;;;;;;;;;5044869;28;1093;-60
2023/07/02 07:07:07;;;;;;;;;;;;;;;;;;5044842;28;4548;-60
2023/07/02 07:09:33;;;;;;;;;;;;;;;;;;5047695;28;4662;-60
2023/07/02 07:11:58;;;;;;;;;;;;;;;;;;5047781;28;5225;-60
2023/07/02 07:14:23;;;;;;;;;;;;;;;;;;5047179;28;5057;-60
2023/07/02 07:16:49;;;;;;;;;;;;;;;;;;5048315;28;1508;-60
2023/07/02 07:19:14;;;;;;;;;;;;;;;;;;5044828;28;4983;-61
2023/07/02 07:21:40;;;;;;;;;;;;;;;;;;5047081;28;4675;-60
2023/07/02 07:24:05;;;;;;;;;;;;;;;;;;5047866;28;4454;-60
2023/07/02 07:26:30;;;;;;;;;;;;;;;;;;5046528;28;5016;-60
2023/07/02 07:28:57;;;;;;;;;;;;;;;;;;5046286;28;1109;-61
2023/07/02 07:31:23;;;;;;;;;;;;;;;;;;5046978;28;4773;-60
2023/07/02 07:33:48;;;;;;;;;;;;;;;;;;5034910;28;4475;-61
2023/07/02 07:36:14;;;;;;;;;;;;;;;;;;5046389;28;5248;-60
2023/07/02 07:38:39;;;;;;;;;;;;;;;;;;5047559;28;5312;-61
2023/07/02 07:41:04;;;;;;;;;;;;;;;;;;5047862;28;4618;-60
2023/07/02 07:43:29;;;;;;;;;;;;;;;;;;5039704;28;1097;-60
2023/07/02 07:45:54;;;;;;;;;;;;;;;;;;5044846;28;5009;-60
2023/07/02 07:48:21;;;;;;;;;;;;;;;;;;5039039;28;4422;-61
2023/07/02 07:50:46;;;;;;;;;;;;;;;;;;5062727;28;4608;-62
2023/07/02 07:53:12;;;;;;;;;;;;;;;;;;5062699;28;4960;-60
2023/07/02 07:55:37;;;;;;;;;;;;;;;;;;5047268;28;1977;-61
2023/07/02 07:58:02;;;;;;;;;;;;;;;;;;5046942;28;4985;-62
2023/07/02 08:00:27;;;;;;;;;;;;;;;;;;5046655;28;4544;-61
2023/07/02 08:02:55;;;;;;;;;;;;;;;;;;5050445;28;4651;-61
2023/07/02 08:05:20;;;;;;;;;;;;;;;;;;5050958;28;4554;-61
2023/07/02 08:07:45;;;;;;;;;;;;;;;;;;5051111;28;1285;-61
2023/07/02 08:10:11;;;;;;;;;;;;;;;;;;5049199;28;4428;-60
2023/07/02 08:12:36;;;;;;;;;;;;;;;;;;5060439;28;5102;-60
2023/07/02 08:15:01;;;;;;;;;;;;;;;;;;5049318;28;4970;-61
2023/07/02 08:17:26;;;;;;;;;;;;;;;;;;5064626;28;4694;-61
2023/07/02 08:19:52;;;;;;;;;;;;;;;;;;5050839;28;3109;-60
2023/07/02 08:22:17;;;;;;;;;;;;;;;;;;5047667;28;5019;-60
2023/07/02 08:24:42;;;;;;;;;;;;;;;;;;5050127;28;5104;-60
2023/07/02 08:27:08;;;;;;;;;;;;;;;;;;5048321;28;4501;-61
2023/07/02 08:29:33;;;;;;;;;;;;;;;;;;5047329;28;5223;-60
2023/07/02 08:31:58;;;;;;;;;;;;;;;;;;5050510;28;1463;-60
2023/07/02 08:34:24;;;;;;;;;;;;;;;;;;5050179;28;5041;-60
2023/07/02 08:36:49;;;;;;;;;;;;;;;;;;5049108;28;5791;-60
2023/07/02 08:39:14;;;;;;;;;;;;;;;;;;5050308;28;5369;-59
2023/07/02 08:41:46;;;;;;;;;;;;;;;;;;5062581;28;4828;-62
2023/07/02 08:44:13;;;;;;;;;;;;;;;;;;5048216;28;5107;-60
2023/07/02 08:46:38;;;;;;;;;;;;;;;;;;5050703;28;1230;-60
2023/07/02 08:49:03;;;;;;;;;;;;;;;;;;5046350;28;5068;-61
2023/07/02 08:51:29;;;;;;;;;;;;;;;;;;5048161;28;5011;-60
2023/07/02 08:53:54;;;;;;;;;;;;;;;;;;5048908;28;5055;-60
2023/07/02 08:56:19;;;;;;;;;;;;;;;;;;5045796;28;4965;-60
2023/07/02 08:58:44;;;;;;;;;;;;;;;;;;5050221;28;1384;-60
2023/07/02 09:01:11;;;;;;;;;;;;;;;;;;5046997;28;5117;-60
2023/07/02 09:03:37;;;;;;;;;;;;;;;;;;5043805;28;5141;-61
2023/07/02 09:06:02;;;;;;;;;;;;;;;;;;5046098;28;4930;-61
2023/07/02 09:08:28;;;;;;;;;;;;;;;;;;5029252;28;4519;-63
2023/07/02 09:11:14;;;;;;;;;;;;;;;;;;5044859;28;3214;-59
2023/07/02 09:13:43;;;;;;;;;;;;;;;;;;5064426;28;5077;-61
2023/07/02 09:16:19;;;;;;;;;;;;;;;;;;5046282;28;4527;-61
2023/07/02 09:18:54;;;;;;;;;;;;;;;;;;5043378;28;5051;-59
2023/07/02 09:21:19;;;;;;;;;;;;;;;;;;5059816;28;4503;-51
2023/07/02 09:23:44;;;;;;;;;;;;;;;;;;5045133;28;5680;-49
2023/07/02 09:26:18;;;;;;;;;;;;;;;;;;5045140;28;5212;-54
2023/07/02 09:28:44;;;;;;;;;;;;;;;;;;5045970;28;3338;-55
2023/07/02 09:31:09;;;;;;;;;;;;;;;;;;5046336;28;4891;-56
2023/07/02 09:33:34;;;;;;;;;;;;;;;;;;5046367;28;5238;-51
2023/07/02 09:35:59;;;;;;;;;;;;;;;;;;5047055;28;4999;-52
2023/07/02 09:38:24;;;;;;;;;;;;;;;;;;5044015;28;5093;-50
2023/07/02 09:40:50;;;;;;;;;;;;;;;;;;5061877;28;3249;-49
2023/07/02 09:43:16;;;;;;;;;;;;;;;;;;5047482;28;4632;-53
2023/07/02 09:45:44;;;;;;;;;;;;;;;;;;5045519;28;4538;-53
2023/07/02 09:48:11;;;;;;;;;;;;;;;;;;5048721;28;4500;-51
2023/07/02 09:50:38;;;;;;;;;;;;;;;;;;5064407;28;4596;-59
2023/07/02 09:53:03;;;;;;;;;;;;;;;;;;5060518;28;5178;-59
2023/07/02 09:55:28;;;;;;;;;;;;;;;;;;5053500;28;1982;-59
2023/07/02 09:57:53;;;;;;;;;;;;;;;;;;5063548;28;4485;-59
2023/07/02 10:00:19;;;;;;;;;;;;;;;;;;5009269;28;5060;-59
2023/07/02 10:02:48;;;;;;;;;;;;;;;;;;5027470;28;4518;-59
2023/07/02 10:05:24;;;;;;;;;;;;;;;;;;5029013;28;4724;-59
2023/07/02 10:07:50;;;;;;;;;;;;;;;;;;5041495;28;1222;-59
2023/07/02 10:10:25;;;;;;;;;;;;;;;;;;5042988;28;4697;-66
2023/07/02 10:12:50;;;;;;;;;;;;;;;;;;5030166;28;5233;-62
2023/07/02 10:15:23;;;;;;;;;;;;;;;;;;5030339;28;4896;-67
2023/07/02 10:17:54;;;;;;;;;;;;;;;;;;5022226;28;4756;-61
2023/07/02 10:20:30;;;;;;;;;;;;;;;;;;5020083;28;4443;-61
2023/07/02 10:22:56;;;;;;;;;;;;;;;;;;5030465;28;1401;-63
2023/07/02 10:25:39;;;;;;;;;;;;;;;;;;5019677;28;5043;-63
2023/07/02 10:28:22;;;;;;;;;;;;;;;;;;5022251;28;5078;-64
2023/07/02 10:30:47;;;;;;;;;;;;;;;;;;5041769;28;4691;-62
2023/07/02 10:33:13;;;;;;;;;;;;;;;;;;5028847;28;4691;-62
2023/07/02 10:35:41;;;;;;;;;;;;;;;;;;5031437;28;5058;-73
2023/07/02 10:38:06;;;;;;;;;;;;;;;;;;5046235;28;4481;-54
2023/07/02 10:40:33;;;;;;;;;;;;;;;;;;5030707;28;1128;-50
2023/07/02 10:42:58;;;;;;;;;;;;;;;;;;5029714;28;5179;-47
2023/07/02 10:45:30;;;;;;;;;;;;;;;;;;5027826;28;5152;-50
2023/07/02 10:47:55;;;;;;;;;;;;;;;;;;5043483;28;5000;-51
2023/07/02 10:50:21;;;;;;;;;;;;;;;;;;5032359;28;5704;-52
2023/07/02 10:52:47;;;;;;;;;;;;;;;;;;5028463;28;3208;-53
2023/07/02 10:55:18;;;;;;;;;;;;;;;;;;5027431;28;5138;-51
2023/07/02 10:57:44;;;;;;;;;;;;;;;;;;5021429;28;4956;-54
2023/07/02 11:00:09;;;;;;;;;;;;;;;;;;5041640;28;5010;-51
2023/07/02 11:02:37;;;;;;;;;;;;;;;;;;5046964;28;5010;-52
2023/07/02 11:05:04;;;;;;;;;;;;;;;;;;5036356;28;5085;-55
2023/07/02 11:07:29;;;;;;;;;;;;;;;;;;5063142;28;1615;-55
2023/07/02 11:09:54;;;;;;;;;;;;;;;;;;5047289;28;4435;-52
2023/07/02 11:12:27;;;;;;;;;;;;;;;;;;5047373;28;4397;-52
2023/07/02 11:14:52;;;;;;;;;;;;;;;;;;5042642;28;4958;-48
2023/07/02 11:17:24;;;;;;;;;;;;;;;;;;5044630;28;5004;-52
2023/07/02 11:19:50;;;;;;;;;;;;;;;;;;5043818;28;1110;-51
2023/07/02 11:22:15;;;;;;;;;;;;;;;;;;5047552;28;4408;-51
2023/07/02 11:24:40;;;;;;;;;;;;;;;;;;5047729;28;4896;-49
2023/07/02 11:27:05;;;;;;;;;;;;;;;;;;5045659;28;5046;-51
2023/07/02 11:29:31;;;;;;;;;;;;;;;;;;5047565;28;4951;-51
2023/07/02 11:32:06;;;;;;;;;;;;;;;;;;5037221;28;1553;-53
2023/07/02 11:34:31;;;;;;;;;;;;;;;;;;5045280;28;5234;-52
2023/07/02 11:36:57;;;;;;;;;;;;;;;;;;5066678;28;4560;-51
2023/07/02 11:39:22;;;;;;;;;;;;;;;;;;5051244;28;4616;-52
2023/07/02 11:41:48;;;;;;;;;;;;;;;;;;5051123;28;4859;-48
2023/07/02 11:44:13;;;;;;;;;;;;;;;;;;5051622;28;5012;-49
2023/07/02 11:46:38;;;;;;;;;;;;;;;;;;5053385;28;1155;-51
2023/07/02 11:49:09;;;;;;;;;;;;;;;;;;5051049;28;4957;-49
2023/07/02 11:51:35;;;;;;;;;;;;;;;;;;5050880;28;4945;-50
2023/07/02 11:54:01;;;;;;;;;;;;;;;;;;5051063;28;4469;-53
2023/07/02 11:56:26;;;;;;;;;;;;;;;;;;5050773;28;5018;-52
2023/07/02 11:58:51;;;;;;;;;;;;;;;;;;5050120;28;1152;-54
2023/07/02 12:01:16;;;;;;;;;;;;;;;;;;5045823;28;4596;-53
2023/07/02 12:03:42;;;;;;;;;;;;;;;;;;5050630;28;5085;-54
2023/07/02 12:06:07;;;;;;;;;;;;;;;;;;5065949;28;4615;-53
2023/07/02 12:08:32;;;;;;;;;;;;;;;;;;5050536;28;4772;-51
2023/07/02 12:10:57;;;;;;;;;;;;;;;;;;5051261;28;1235;-49
2023/07/02 12:13:23;;;;;;;;;;;;;;;;;;5047648;28;4434;-49
2023/07/02 12:15:49;;;;;;;;;;;;;;;;;;5050187;28;5041;-52
2023/07/02 12:18:14;;;;;;;;;;;;;;;;;;5051037;28;5201;-53
2023/07/02 12:20:40;;;;;;;;;;;;;;;;;;5050300;28;4460;-51
2023/07/02 12:23:05;;;;;;;;;;;;;;;;;;5050786;28;5118;-51
2023/07/02 12:25:30;;;;;;;;;;;;;;;;;;5051026;28;1258;-48
2023/07/02 12:27:56;;;;;;;;;;;;;;;;;;5046503;28;5033;-52
2023/07/02 12:30:21;;;;;;;;;;;;;;;;;;5046346;28;5109;-51
2023/07/02 12:32:46;;;;;;;;;;;;;;;;;;5049788;28;4966;-54
2023/07/02 12:35:11;;;;;;;;;;;;;;;;;;5049803;28;4839;-52
2023/07/02 12:37:43;;;;;;;;;;;;;;;;;;5050852;28;1428;-51
2023/07/02 12:40:09;;;;;;;;;;;;;;;;;;5049706;28;5100;-51
2023/07/02 12:42:34;;;;;;;;;;;;;;;;;;5050361;28;5144;-48
2023/07/02 12:44:59;;;;;;;;;;;;;;;;;;5048201;28;5198;-49
2023/07/02 12:47:25;;;;;;;;;;;;;;;;;;5048418;28;5082;-47
2023/07/02 12:49:50;;;;;;;;;;;;;;;;;;5044612;28;3223;-49
2023/07/02 12:52:15;;;;;;;;;;;;;;;;;;5049658;28;5056;-56
2023/07/02 12:54:40;;;;;;;;;;;;;;;;;;5049971;28;5154;-47
2023/07/02 12:57:06;;;;;;;;;;;;;;;;;;5044561;28;4958;-47
2023/07/02 12:59:31;;;;;;;;;;;;;;;;;;5026396;28;4985;-59
2023/07/02 13:01:56;;;;;;;;;;;;;;;;;;5045155;28;3371;-63
2023/07/02 13:04:21;;;;;;;;;;;;;;;;;;5045781;28;4458;-62
2023/07/02 13:06:47;;;;;;;;;;;;;;;;;;5048683;28;5048;-66
2023/07/02 13:09:12;;;;;;;;;;;;;;;;;;5046738;28;4492;-67
2023/07/02 13:11:38;;;;;;;;;;;;;;;;;;5030374;28;4678;-67
2023/07/02 13:14:03;;;;;;;;;;;;;;;;;;5040312;28;5327;-68
2023/07/02 13:16:28;;;;;;;;;;;;;;;;;;5044496;28;2963;-54
2023/07/02 13:18:56;;;;;;;;;;;;;;;;;;5044139;28;5070;-55
2023/07/02 13:21:21;;;;;;;;;;;;;;;;;;5059524;28;4440;-57
2023/07/02 13:23:47;;;;;;;;;;;;;;;;;;5046045;28;4625;-57
2023/07/02 13:26:12;;;;;;;;;;;;;;;;;;5044062;28;4869;-55
2023/07/02 13:28:37;;;;;;;;;;;;;;;;;;5046066;28;3325;-49
2023/07/02 13:31:02;;;;;;;;;;;;;;;;;;5047039;28;4601;-49
2023/07/02 13:33:28;;;;;;;;;;;;;;;;;;5046428;28;5207;-51
2023/07/02 13:35:54;;;;;;;;;;;;;;;;;;5046724;28;5056;-52
2023/07/02 13:38:19;;;;;;;;;;;;;;;;;;5048221;28;4986;-51
2023/07/02 13:40:45;;;;;;;;;;;;;;;;;;5041969;28;1195;-50
2023/07/02 13:43:10;;;;;;;;;;;;;;;;;;5047974;28;4590;-52
2023/07/02 13:45:35;;;;;;;;;;;;;;;;;;5048221;28;5209;-52
2023/07/02 13:48:00;;;;;;;;;;;;;;;;;;5047925;28;4642;-55
2023/07/02 13:50:26;;;;;;;;;;;;;;;;;;5048547;28;4657;-52
2023/07/02 13:52:51;;;;;;;;;;;;;;;;;;5049427;28;1070;-49
2023/07/02 13:55:16;;;;;;;;;;;;;;;;;;5040250;28;4985;-57
2023/07/02 13:57:42;;;;;;;;;;;;;;;;;;5048151;28;4919;-51
2023/07/02 14:00:07;;;;;;;;;;;;;;;;;;5049616;28;4730;-51
2023/07/02 14:02:33;;;;;;;;;;;;;;;;;;5047900;28;5068;-53
2023/07/02 14:04:58;;;;;;;;;;;;;;;;;;5048967;28;1122;-48
2023/07/02 14:07:23;;;;;;;;;;;;;;;;;;5045208;28;4942;-51
2023/07/02 14:09:49;;;;;;;;;;;;;;;;;;5048906;28;4420;-54
2023/07/02 14:12:14;;;;;;;;;;;;;;;;;;5048735;28;4594;-56
2023/07/02 14:14:39;;;;;;;;;;;;;;;;;;5049093;28;5015;-52
2023/07/02 14:17:05;;;;;;;;;;;;;;;;;;5048796;28;4950;-51
2023/07/02 14:19:30;;;;;;;;;;;;;;;;;;5049347;28;1090;-52
2023/07/02 14:21:55;;;;;;;;;;;;;;;;;;5048440;28;4987;-50
2023/07/02 14:24:21;;;;;;;;;;;;;;;;;;5048825;28;4731;-50
2023/07/02 14:26:46;;;;;;;;;;;;;;;;;;5046867;28;5021;-52
2023/07/02 14:29:11;;;;;;;;;;;;;;;;;;5049602;28;5054;-51
2023/07/02 14:31:36;;;;;;;;;;;;;;;;;;5049030;28;1114;-52
2023/07/02 14:34:02;;;;;;;;;;;;;;;;;;5046257;28;5098;-52
2023/07/02 14:36:27;;;;;;;;;;;;;;;;;;5048025;28;4578;-55
2023/07/02 14:38:52;;;;;;;;;;;;;;;;;;5048725;28;5101;-51
2023/07/02 14:41:17;;;;;;;;;;;;;;;;;;5030857;28;5382;-52
2023/07/02 14:43:43;;;;;;;;;;;;;;;;;;5051125;28;1213;-53
2023/07/02 14:46:08;;;;;;;;;;;;;;;;;;5046991;28;5038;-54
2023/07/02 14:48:33;;;;;;;;;;;;;;;;;;5047676;28;4863;-53
2023/07/02 14:50:59;;;;;;;;;;;;;;;;;;5047953;28;4976;-53
2023/07/02 14:53:25;;;;;;;;;;;;;;;;;;5043173;28;4589;-51
2023/07/02 14:55:50;;;;;;;;;;;;;;;;;;5052911;28;1910;-56
2023/07/02 14:58:16;;;;;;;;;;;;;;;;;;5048817;28;4978;-49
2023/07/02 15:00:51;;;;;;;;;;;;;;;;;;5048263;28;4679;-51
2023/07/02 15:03:17;;;;;;;;;;;;;;;;;;5047341;28;4994;-51
2023/07/02 15:05:42;;;;;;;;;;;;;;;;;;5046526;28;5167;-46
2023/07/02 15:08:08;;;;;;;;;;;;;;;;;;5048445;28;5165;-51
2023/07/02 15:10:33;;;;;;;;;;;;;;;;;;5053043;28;1165;-48
2023/07/02 15:12:58;;;;;;;;;;;;;;;;;;5052586;28;4614;-46
2023/07/02 15:15:24;;;;;;;;;;;;;;;;;;5050358;28;4958;-46
2023/07/02 15:17:49;;;;;;;;;;;;;;;;;;5046396;28;4524;-48
2023/07/02 15:20:14;;;;;;;;;;;;;;;;;;5051928;28;5117;-48
2023/07/02 15:22:39;;;;;;;;;;;;;;;;;;5052681;28;1215;-50
2023/07/02 15:25:05;;;;;;;;;;;;;;;;;;5051824;28;4463;-52
2023/07/02 15:27:30;;;;;;;;;;;;;;;;;;5049975;28;4965;-48
2023/07/02 15:29:55;;;;;;;;;;;;;;;;;;5044463;28;5091;-53
2023/07/02 15:32:21;;;;;;;;;;;;;;;;;;5044799;28;4653;-54
2023/07/02 15:34:46;;;;;;;;;;;;;;;;;;5048984;28;4971;-56
2023/07/02 15:37:11;;;;;;;;;;;;;;;;;;5051395;28;4577;-50
2023/07/02 15:39:36;;;;;;;;;;;;;;;;;;5050155;28;5106;-53
2023/07/02 15:42:02;;;;;;;;;;;;;;;;;;5048082;28;5003;-54
2023/07/02 15:44:27;;;;;;;;;;;;;;;;;;5041820;28;5148;-51
2023/07/02 15:46:52;;;;;;;;;;;;;;;;;;5049136;28;3272;-50
2023/07/02 15:49:17;;;;;;;;;;;;;;;;;;5049236;28;4985;-47
2023/07/02 15:51:43;;;;;;;;;;;;;;;;;;5051000;28;4853;-51
2023/07/02 15:54:08;;;;;;;;;;;;;;;;;;5053980;28;5188;-49
2023/07/02 15:56:34;;;;;;;;;;;;;;;;;;5048783;28;4677;-50
2023/07/02 15:59:00;;;;;;;;;;;;;;;;;;5048398;28;3565;-48
2023/07/02 16:01:26;;;;;;;;;;;;;;;;;;5050254;28;4629;-50
2023/07/02 16:03:52;;;;;;;;;;;;;;;;;;5065707;28;4638;-54
2023/07/02 16:06:18;;;;;;;;;;;;;;;;;;5061854;28;5235;-52
2023/07/02 16:08:43;;;;;;;;;;;;;;;;;;5051964;28;5857;-49
2023/07/02 16:11:09;;;;;;;;;;;;;;;;;;5043314;28;4984;-51
2023/07/02 16:13:35;;;;;;;;;;;;;;;;;;5051545;28;2656;-51
2023/07/02 16:16:01;;;;;;;;;;;;;;;;;;5050833;28;4864;-51
2023/07/02 16:18:26;;;;;;;;;;;;;;;;;;5049922;28;5235;-50
2023/07/02 16:21:01;;;;;;;;;;;;;;;;;;5035535;28;5016;-54
2023/07/02 16:23:26;;;;;;;;;;;;;;;;;;5041295;28;5351;-60
2023/07/02 16:25:52;;;;;;;;;;;;;;;;;;5037896;28;3028;-58
2023/07/02 16:28:17;;;;;;;;;;;;;;;;;;5037056;28;4834;-58
2023/07/02 16:30:42;;;;;;;;;;;;;;;;;;5049107;28;4584;-56
2023/07/02 16:33:08;;;;;;;;;;;;;;;;;;5044117;28;5177;-62
2023/07/02 16:35:33;;;;;;;;;;;;;;;;;;5042425;28;5217;-58
2023/07/02 16:37:58;;;;;;;;;;;;;;;;;;5045652;28;3099;-55
2023/07/02 16:40:23;;;;;;;;;;;;;;;;;;5047774;28;4482;-58
2023/07/02 16:42:49;;;;;;;;;;;;;;;;;;5038945;28;5039;-59
2023/07/02 16:45:14;;;;;;;;;;;;;;;;;;5048854;28;4638;-57
2023/07/02 16:47:39;;;;;;;;;;;;;;;;;;5045983;28;5032;-59
2023/07/02 16:50:05;;;;;;;;;;;;;;;;;;5046785;28;5112;-58
2023/07/02 16:52:30;;;;;;;;;;;;;;;;;;5062744;28;3429;-61
2023/07/02 16:54:56;;;;;;;;;;;;;;;;;;5045231;28;4689;-61